Time;durP1;ratioP1;P1;durP2;ratioP2;P2;SDS_P1;SDS_P2;PMS_P1;PMS_P2;Temp;Humidity;BMP_temperature;BMP_pressure;BME280_temperature;BME280_humidity;BME280_pressure;Samples;Min_cycle;Max_cycle;Signal;HPM_P1;HPM_P2
2023/12/25 00:01:00;;;;;;;3.33;1.93;;;;;;;12.03;100.00;98848.47;5054539;28;20247;-79
2023/12/25 00:03:27;;;;;;;2.60;1.60;;;;;;;12.20;100.00;98866.78;5054148;28;20205;-79
2023/12/25 00:05:53;;;;;;;3.13;1.33;;;;;;;12.17;100.00;98889.63;5054338;28;20278;-80
2023/12/25 00:08:19;;;;;;;4.40;1.70;;;;;;;12.31;100.00;98895.03;5053300;28;20209;-78
2023/12/25 00:10:46;;;;;;;2.10;1.30;;;;;;;12.22;100.00;98912.03;5054153;28;20263;-78
2023/12/25 00:13:14;;;;;;;3.63;2.20;;;;;;;12.10;100.00;98923.94;5054676;28;20198;-79
2023/12/25 00:15:40;;;;;;;3.57;1.70;;;;;;;12.17;100.00;98932.34;5053803;28;20772;-78
2023/12/25 00:18:07;;;;;;;3.30;1.60;;;;;;;12.27;100.00;98936.19;5054452;28;20255;-79
2023/12/25 00:20:33;;;;;;;2.77;1.40;;;;;;;12.43;99.41;98966.84;5054189;28;20205;-79
2023/12/25 00:23:00;;;;;;;3.23;1.90;;;;;;;12.38;98.77;98998.44;5054682;28;20229;-80
2023/12/25 00:25:26;;;;;;;4.70;1.77;;;;;;;12.51;99.36;98991.69;5053472;28;20770;-80
2023/12/25 00:27:53;;;;;;;2.70;1.87;;;;;;;12.56;99.45;98982.75;5054402;28;20664;-80
2023/12/25 00:30:20;;;;;;;3.90;1.60;;;;;;;12.27;99.67;98988.53;5054173;28;20232;-79
2023/12/25 00:32:47;;;;;;;2.77;1.30;;;;;;;12.37;98.81;98974.97;5053594;28;20243;-79
2023/12/25 00:35:13;;;;;;;2.37;1.10;;;;;;;12.36;98.64;99012.53;5054337;28;20263;-79
2023/12/25 00:37:40;;;;;;;5.37;1.57;;;;;;;12.35;98.51;99001.22;5054032;28;20214;-80
2023/12/25 00:40:07;;;;;;;2.27;1.03;;;;;;;12.38;98.36;99002.84;5053942;28;20213;-80
2023/12/25 00:42:34;;;;;;;3.43;1.20;;;;;;;12.39;97.62;98999.28;5054066;28;20703;-80
2023/12/25 00:45:00;;;;;;;3.37;1.30;;;;;;;12.24;98.30;99016.59;5053479;28;20771;-78
2023/12/25 00:47:28;;;;;;;1.83;0.90;;;;;;;12.31;98.68;99004.94;5054167;28;20201;-78
2023/12/25 00:49:54;;;;;;;2.07;1.23;;;;;;;12.25;100.00;98976.41;5054550;28;20201;-80
2023/12/25 00:52:20;;;;;;;1.30;0.90;;;;;;;12.25;100.00;98950.25;5054414;28;20193;-79
2023/12/25 00:54:47;;;;;;;2.43;1.30;;;;;;;12.22;100.00;98955.66;5052306;28;20279;-80
2023/12/25 00:57:13;;;;;;;0.90;0.90;;;;;;;12.14;99.85;98981.34;5054613;28;20244;-80
2023/12/25 00:59:40;;;;;;;1.03;0.90;;;;;;;12.32;98.91;98970.81;5054075;28;20248;-79
2023/12/25 01:02:06;;;;;;;2.23;1.00;;;;;;;12.23;97.40;98991.34;5057945;28;20274;-79
2023/12/25 01:04:34;;;;;;;1.73;0.90;;;;;;;12.42;95.53;99018.31;5058220;28;20229;-79
2023/12/25 01:07:00;;;;;;;2.40;1.10;;;;;;;12.49;95.51;99017.09;5050414;28;20231;-80
2023/12/25 01:09:27;;;;;;;1.20;1.00;;;;;;;12.38;94.38;99053.41;5058056;28;20209;-80
2023/12/25 01:11:53;;;;;;;1.83;1.00;;;;;;;12.23;94.67;99059.38;5058563;28;20262;-79
2023/12/25 01:14:19;;;;;;;1.97;1.03;;;;;;;12.26;93.48;99062.69;5058250;28;20229;-79
2023/12/25 01:16:46;;;;;;;1.57;0.80;;;;;;;12.38;93.17;99081.34;5057599;28;20227;-79
2023/12/25 01:19:12;;;;;;;1.67;1.10;;;;;;;12.31;93.34;99086.03;5058684;28;20221;-79
2023/12/25 01:21:40;;;;;;;1.33;0.90;;;;;;;12.31;93.22;99099.13;5058160;28;20233;-79
2023/12/25 01:24:06;;;;;;;2.87;1.00;;;;;;;12.32;92.63;99108.66;5057742;28;20221;-79
2023/12/25 01:26:33;;;;;;;2.77;1.00;;;;;;;12.40;92.77;99103.06;5057756;28;20213;-79
2023/12/25 01:28:59;;;;;;;2.73;1.30;;;;;;;12.32;95.46;99101.63;5057364;28;20213;-79
2023/12/25 01:31:25;;;;;;;1.07;0.97;;;;;;;12.18;99.16;99028.22;5057310;28;20549;-78
2023/12/25 01:33:52;;;;;;;1.97;1.10;;;;;;;11.95;100.00;98948.22;5057277;28;20268;-79
2023/12/25 01:36:18;;;;;;;1.40;1.30;;;;;;;12.09;100.00;98909.19;5057216;28;20220;-79
2023/12/25 01:38:46;;;;;;;2.50;1.30;;;;;;;12.05;100.00;98889.34;5056842;28;20263;-79
2023/12/25 01:41:12;;;;;;;1.97;1.30;;;;;;;11.79;100.00;98874.06;5056965;28;20213;-79
2023/12/25 01:43:39;;;;;;;1.57;1.20;;;;;;;11.91;100.00;98878.69;5056348;28;20225;-79
2023/12/25 01:46:05;;;;;;;2.90;1.33;;;;;;;11.91;100.00;98910.09;5056970;28;20255;-79
2023/12/25 01:48:32;;;;;;;1.93;1.40;;;;;;;11.99;100.00;98943.69;5057024;28;20209;-79
2023/12/25 01:51:00;;;;;;;1.60;1.50;;;;;;;12.24;99.68;98972.97;5057219;28;20197;-79
2023/12/25 01:53:27;;;;;;;1.40;1.23;;;;;;;12.30;98.40;98988.34;5057341;28;20699;-80
2023/12/25 01:55:55;;;;;;;2.37;1.27;;;;;;;12.30;95.97;99038.06;5055793;28;20259;-79
2023/12/25 01:58:21;;;;;;;2.80;1.10;;;;;;;12.32;95.88;99051.09;5056049;28;20197;-79
2023/12/25 02:00:47;;;;;;;1.97;1.20;;;;;;;12.19;97.81;99047.34;5056746;28;20259;-80
2023/12/25 02:03:14;;;;;;;1.67;1.10;;;;;;;12.19;100.00;99003.75;5056365;28;20279;-79
2023/12/25 02:05:40;;;;;;;1.20;1.20;;;;;;;11.90;100.00;98958.91;5056942;28;20229;-78
2023/12/25 02:08:08;;;;;;;1.33;1.10;;;;;;;11.96;100.00;98928.19;5056554;28;20201;-79
2023/12/25 02:10:34;;;;;;;1.47;1.37;;;;;;;11.98;100.00;98905.41;5056225;28;20206;-80
2023/12/25 02:13:05;;;;;;;1.93;1.50;;;;;;;12.14;100.00;98908.13;5055907;28;20208;-79
2023/12/25 02:15:31;;;;;;;1.63;1.30;;;;;;;12.08;100.00;98944.09;5056038;28;20279;-80
2023/12/25 02:17:58;;;;;;;2.47;1.27;;;;;;;12.16;100.00;98964.66;5056601;28;20268;-79
2023/12/25 02:20:25;;;;;;;1.63;1.30;;;;;;;12.12;100.00;98984.88;5056839;28;20202;-80
2023/12/25 02:22:52;;;;;;;2.20;1.07;;;;;;;12.09;99.67;99003.34;5056872;28;20244;-79
2023/12/25 02:25:27;;;;;;;1.30;1.20;;;;;;;12.13;99.91;98996.22;5055504;28;20213;-80
2023/12/25 02:27:54;;;;;;;1.70;0.80;;;;;;;11.97;99.29;99005.69;5056891;28;20587;-80
2023/12/25 02:30:21;;;;;;;1.27;0.80;;;;;;;12.02;98.18;99037.72;5056652;28;20319;-79
2023/12/25 02:32:47;;;;;;;1.30;0.80;;;;;;;12.07;97.88;99044.44;5056114;28;20638;-79
2023/12/25 02:35:14;;;;;;;1.07;0.87;;;;;;;11.88;97.69;99067.09;5056259;28;20271;-80
2023/12/25 02:37:40;;;;;;;1.73;0.90;;;;;;;11.86;97.74;99050.63;5056414;28;20205;-79
2023/12/25 02:40:07;;;;;;;1.07;0.70;;;;;;;12.12;97.58;99054.66;5047386;28;20630;-80
2023/12/25 02:42:34;;;;;;;0.70;0.50;;;;;;;12.03;97.31;99074.25;5056421;28;20229;-78
2023/12/25 02:45:02;;;;;;;0.50;0.50;;;;;;;11.90;98.58;99067.91;5055393;28;20248;-80
2023/12/25 02:47:28;;;;;;;1.37;0.80;;;;;;;11.97;96.83;99058.88;5056132;28;20274;-79
2023/12/25 02:49:55;;;;;;;1.60;0.83;;;;;;;12.07;97.24;99082.78;5055672;28;20205;-79
2023/12/25 02:52:21;;;;;;;1.23;0.70;;;;;;;11.88;96.95;99080.16;5055779;28;20209;-78
2023/12/25 02:54:47;;;;;;;0.57;0.57;;;;;;;11.96;96.11;99091.16;5055009;28;20226;-79
2023/12/25 02:57:14;;;;;;;1.10;0.63;;;;;;;11.94;96.20;99098.22;5055864;28;20258;-78
2023/12/25 02:59:40;;;;;;;0.97;0.70;;;;;;;12.11;94.77;99115.75;5055882;28;20639;-80
2023/12/25 03:02:08;;;;;;;1.00;0.70;;;;;;;12.05;95.12;99131.72;5055898;28;20201;-80
2023/12/25 03:04:34;;;;;;;1.53;0.93;;;;;;;12.11;94.41;99131.44;5055777;28;20255;-79
2023/12/25 03:07:00;;;;;;;1.53;0.70;;;;;;;11.97;94.65;99165.22;5055234;28;20213;-79
2023/12/25 03:09:27;;;;;;;2.00;1.10;;;;;;;11.99;92.86;99189.53;5055660;28;20267;-79
2023/12/25 03:11:53;;;;;;;0.53;0.53;;;;;;;12.03;93.76;99164.94;5055557;28;20206;-80
2023/12/25 03:14:19;;;;;;;0.87;0.60;;;;;;;11.97;93.11;99181.78;5055495;28;20244;-78
2023/12/25 03:16:46;;;;;;;1.43;0.63;;;;;;;12.08;93.18;99197.81;5055485;28;20263;-79
2023/12/25 03:19:13;;;;;;;0.97;0.50;;;;;;;12.12;91.84;99206.38;5054930;28;20270;-80
2023/12/25 03:21:40;;;;;;;1.00;0.60;;;;;;;12.12;92.17;99204.59;5055467;28;20209;-79
2023/12/25 03:24:06;;;;;;;0.83;0.60;;;;;;;12.08;91.66;99223.97;5054256;28;20230;-80
2023/12/25 03:26:33;;;;;;;0.90;0.50;;;;;;;11.98;91.71;99237.53;5055343;28;20255;-79
2023/12/25 03:29:00;;;;;;;2.23;0.70;;;;;;;12.21;91.89;99221.66;5055647;28;20205;-80
2023/12/25 03:31:26;;;;;;;1.63;0.50;;;;;;;12.10;91.17;99224.75;5055621;28;20209;-79
2023/12/25 03:33:52;;;;;;;1.10;0.70;;;;;;;12.22;91.42;99220.72;5055014;28;20688;-79
2023/12/25 03:36:20;;;;;;;1.07;0.50;;;;;;;12.00;92.23;99226.06;5055116;28;20635;-79
2023/12/25 03:38:47;;;;;;;0.83;0.60;;;;;;;11.96;92.39;99241.97;5054400;28;20619;-79
2023/12/25 03:41:13;;;;;;;1.37;0.60;;;;;;;11.91;92.61;99224.72;5055811;28;20210;-79
2023/12/25 03:43:40;;;;;;;1.20;1.00;;;;;;;12.03;91.13;99239.03;5054821;28;20226;-79
2023/12/25 03:46:07;;;;;;;1.63;0.90;;;;;;;12.03;91.08;99233.81;5054547;28;20564;-80
2023/12/25 03:48:33;;;;;;;1.37;0.63;;;;;;;12.05;90.99;99244.16;5054690;28;20209;-80
2023/12/25 03:51:00;;;;;;;1.73;1.00;;;;;;;12.08;90.41;99257.13;5054154;28;20209;-79
2023/12/25 03:53:28;;;;;;;1.70;0.80;;;;;;;12.19;90.31;99267.97;5054874;28;20198;-79
2023/12/25 03:55:54;;;;;;;0.80;0.80;;;;;;;12.26;90.51;99266.75;5054766;28;20217;-80
2023/12/25 03:58:21;;;;;;;1.20;0.80;;;;;;;12.09;91.39;99253.59;5055323;28;20201;-78
2023/12/25 04:00:47;;;;;;;2.40;0.60;;;;;;;12.14;92.10;99249.00;5054895;28;20212;-80
2023/12/25 04:03:13;;;;;;;2.13;0.70;;;;;;;12.07;92.81;99221.41;5054485;28;20225;-80
2023/12/25 04:05:40;;;;;;;1.43;0.87;;;;;;;11.97;93.08;99214.91;5054347;28;20580;-79
2023/12/25 04:08:06;;;;;;;2.83;1.53;;;;;;;12.03;93.27;99209.41;5054593;28;20209;-79
2023/12/25 04:10:35;;;;;;;1.83;0.70;;;;;;;11.94;92.59;99208.06;5054528;28;20208;-79
2023/12/25 04:13:01;;;;;;;1.80;0.90;;;;;;;12.01;92.16;99204.25;5054419;28;20280;-80
2023/12/25 04:15:27;;;;;;;3.30;1.43;;;;;;;12.05;91.82;99216.28;5055005;28;20217;-79
2023/12/25 04:17:54;;;;;;;2.90;0.90;;;;;;;12.09;91.23;99224.81;5055613;28;20659;-80
2023/12/25 04:20:20;;;;;;;1.53;0.77;;;;;;;12.11;89.95;99242.16;5055467;28;20240;-79
2023/12/25 04:22:48;;;;;;;2.03;0.83;;;;;;;12.15;90.50;99258.56;5055859;28;20715;-80
2023/12/25 04:25:15;;;;;;;1.73;0.87;;;;;;;12.02;90.58;99250.41;5046657;28;20217;-80
2023/12/25 04:27:42;;;;;;;3.13;1.33;;;;;;;12.15;90.65;99258.56;5055394;28;20210;-80
2023/12/25 04:30:09;;;;;;;3.00;1.60;;;;;;;12.04;89.92;99271.25;5053539;28;20221;-80
2023/12/25 04:32:36;;;;;;;1.87;0.73;;;;;;;12.02;90.07;99287.00;5050276;28;20213;-79
2023/12/25 04:35:02;;;;;;;1.10;0.80;;;;;;;12.12;88.48;99301.38;5052721;28;20221;-80
2023/12/25 04:37:28;;;;;;;2.23;0.90;;;;;;;12.06;88.41;99324.34;5054387;28;20254;-79
2023/12/25 04:39:55;;;;;;;2.83;0.90;;;;;;;11.90;88.19;99335.47;5050486;28;20258;-80
2023/12/25 04:42:21;;;;;;;1.23;0.73;;;;;;;12.01;89.31;99328.91;5054584;28;20251;-80
2023/12/25 04:44:49;;;;;;;2.20;1.23;;;;;;;12.18;89.62;99315.13;5053631;28;20271;-80
2023/12/25 04:47:15;;;;;;;1.20;0.90;;;;;;;11.92;89.33;99340.63;5050867;28;20235;-79
2023/12/25 04:49:42;;;;;;;2.23;0.80;;;;;;;12.08;89.39;99325.97;5054138;28;20206;-80
2023/12/25 04:52:11;;;;;;;1.50;1.30;;;;;;;11.95;90.68;99318.72;5053401;28;20194;-80
2023/12/25 04:54:38;;;;;;;2.47;1.07;;;;;;;12.11;90.44;99299.69;5051004;28;20282;-79
2023/12/25 04:57:05;;;;;;;3.57;1.00;;;;;;;12.16;90.12;99315.19;5050063;28;20197;-79
2023/12/25 04:59:31;;;;;;;2.37;1.00;;;;;;;12.01;90.58;99306.25;5049050;28;20213;-79
2023/12/25 05:02:03;;;;;;;3.33;1.10;;;;;;;11.75;91.84;99286.38;5044009;28;20268;-79
2023/12/25 05:04:29;;;;;;;2.43;1.20;;;;;;;11.97;91.51;99272.44;5049226;28;20229;-80
2023/12/25 05:06:55;;;;;;;2.47;0.97;;;;;;;12.05;91.51;99271.19;5046502;28;20202;-80
2023/12/25 05:09:22;;;;;;;2.77;0.90;;;;;;;11.95;91.01;99287.34;5049040;28;20224;-81
2023/12/25 05:11:48;;;;;;;1.80;0.73;;;;;;;11.87;91.80;99278.06;5051915;28;20210;-78
2023/12/25 05:14:14;;;;;;;3.47;1.10;;;;;;;11.84;91.84;99277.31;5057832;28;20239;-78
2023/12/25 05:16:41;;;;;;;1.60;0.70;;;;;;;11.70;91.84;99275.31;5057784;28;20234;-77
2023/12/25 05:19:10;;;;;;;2.83;1.17;;;;;;;11.53;94.23;99247.25;5060186;28;20225;-78
2023/12/25 05:21:36;;;;;;;2.33;0.80;;;;;;;11.62;94.75;99219.88;5060880;28;20224;-78
2023/12/25 05:24:02;;;;;;;3.03;1.10;;;;;;;11.73;94.69;99208.06;5058646;28;20233;-79
2023/12/25 05:26:29;;;;;;;3.47;0.97;;;;;;;11.56;95.27;99210.53;5058734;28;20251;-79
2023/12/25 05:28:55;;;;;;;2.37;1.10;;;;;;;11.65;95.74;99191.00;5049723;28;20232;-80
2023/12/25 05:31:22;;;;;;;3.87;1.10;;;;;;;11.44;95.65;99188.41;5052482;28;20206;-78
2023/12/25 05:33:48;;;;;;;5.37;1.40;;;;;;;11.26;95.59;99183.97;5049665;28;20271;-79
2023/12/25 05:36:16;;;;;;;1.73;1.00;;;;;;;11.31;96.72;99164.53;5049927;28;20255;-79
2023/12/25 05:38:42;;;;;;;2.60;1.00;;;;;;;11.19;99.15;99143.31;5049736;28;20205;-79
2023/12/25 05:41:09;;;;;;;2.07;0.90;;;;;;;11.03;99.99;99130.91;5049113;28;20206;-78
2023/12/25 05:43:35;;;;;;;0.97;0.90;;;;;;;11.03;100.00;99096.97;5050485;28;20287;-79
2023/12/25 05:46:02;;;;;;;1.50;0.80;;;;;;;10.85;100.00;99074.25;5048565;28;20205;-78
2023/12/25 05:48:28;;;;;;;2.23;0.80;;;;;;;11.18;100.00;99045.84;5052233;28;20255;-79
2023/12/25 05:50:55;;;;;;;2.53;0.90;;;;;;;11.21;100.00;99063.13;5055066;28;20201;-79
2023/12/25 05:53:24;;;;;;;1.77;1.10;;;;;;;11.22;100.00;99038.69;5051586;28;20228;-80
2023/12/25 05:55:51;;;;;;;1.47;1.13;;;;;;;10.80;100.00;99010.94;5053076;28;20221;-80
2023/12/25 05:58:17;;;;;;;1.80;1.00;;;;;;;10.97;100.00;98989.34;5054274;28;20660;-80
2023/12/25 06:00:43;;;;;;;3.57;1.30;;;;;;;11.01;100.00;99009.16;5054889;28;20213;-79
2023/12/25 06:03:10;;;;;;;3.30;1.23;;;;;;;11.06;100.00;99012.41;5053266;28;20448;-80
2023/12/25 06:05:36;;;;;;;2.53;0.87;;;;;;;11.01;100.00;99030.91;5052795;28;20379;-80
2023/12/25 06:08:02;;;;;;;2.23;1.20;;;;;;;11.20;100.00;99050.97;5051196;28;20206;-80
2023/12/25 06:10:30;;;;;;;1.33;1.03;;;;;;;11.06;100.00;99059.41;5053313;28;20206;-79
2023/12/25 06:12:57;;;;;;;1.73;0.90;;;;;;;11.27;100.00;99081.16;5053982;28;20205;-80
2023/12/25 06:15:23;;;;;;;1.47;1.10;;;;;;;11.01;100.00;99069.22;5050679;28;20225;-79
2023/12/25 06:17:49;;;;;;;1.80;1.00;;;;;;;10.72;100.00;99032.13;5052572;28;20209;-79
2023/12/25 06:20:16;;;;;;;2.27;1.07;;;;;;;10.47;100.00;98969.72;5052672;28;20233;-79
2023/12/25 06:22:42;;;;;;;2.33;1.10;;;;;;;10.64;100.00;98945.50;5053688;28;20237;-79
2023/12/25 06:25:09;;;;;;;2.27;1.30;;;;;;;10.79;100.00;98938.78;5052598;28;20229;-79
2023/12/25 06:27:37;;;;;;;2.77;1.10;;;;;;;10.60;100.00;98942.19;5055460;28;20210;-80
2023/12/25 06:30:04;;;;;;;3.77;1.80;;;;;;;10.65;100.00;98955.88;5054365;28;20695;-80
2023/12/25 06:32:30;;;;;;;1.73;1.13;;;;;;;10.77;100.00;98987.59;5056266;28;20292;-79
2023/12/25 06:34:57;;;;;;;2.67;1.20;;;;;;;10.81;100.00;99018.72;5055493;28;20643;-80
2023/12/25 06:37:23;;;;;;;2.23;1.10;;;;;;;10.92;100.00;99054.78;5056661;28;20255;-79
2023/12/25 06:39:50;;;;;;;3.57;1.10;;;;;;;10.95;100.00;99088.59;5056547;28;20209;-80
2023/12/25 06:42:16;;;;;;;2.93;1.20;;;;;;;10.91;100.00;99097.47;5057261;28;20228;-79
2023/12/25 06:44:44;;;;;;;2.93;1.17;;;;;;;10.95;100.00;99137.38;5056243;28;20287;-78
2023/12/25 06:47:10;;;;;;;3.17;1.13;;;;;;;10.95;100.00;99153.03;5056681;28;20270;-79
2023/12/25 06:49:36;;;;;;;2.87;1.00;;;;;;;11.07;100.00;99170.81;5057580;28;20212;-80
2023/12/25 06:52:03;;;;;;;2.13;1.20;;;;;;;11.21;99.89;99188.50;5056547;28;20251;-80
2023/12/25 06:54:29;;;;;;;2.37;1.07;;;;;;;11.04;100.00;99194.41;5056530;28;20217;-79
2023/12/25 06:56:56;;;;;;;3.63;1.03;;;;;;;11.04;99.94;99189.19;5056473;28;20270;-80
2023/12/25 06:59:22;;;;;;;1.50;0.90;;;;;;;11.15;99.34;99202.66;5056415;28;20231;-79
2023/12/25 07:01:50;;;;;;;2.90;1.10;;;;;;;11.03;99.14;99226.69;5056707;28;20209;-79
2023/12/25 07:04:16;;;;;;;2.50;1.17;;;;;;;11.14;99.86;99216.66;5056237;28;20245;-80
2023/12/25 07:06:42;;;;;;;2.90;1.00;;;;;;;11.04;99.15;99217.91;5055444;28;20216;-79
2023/12/25 07:09:09;;;;;;;2.43;0.90;;;;;;;11.13;98.73;99236.69;5055268;28;20205;-79
2023/12/25 07:11:36;;;;;;;2.67;0.87;;;;;;;11.13;98.42;99256.72;5055735;28;20220;-80
2023/12/25 07:14:02;;;;;;;2.90;0.93;;;;;;;11.01;98.44;99259.84;5055301;28;20690;-78
2023/12/25 07:16:29;;;;;;;2.37;1.10;;;;;;;11.19;98.64;99240.81;5055245;28;20212;-79
2023/12/25 07:18:56;;;;;;;2.23;1.10;;;;;;;11.26;97.25;99264.94;5055246;28;20239;-79
2023/12/25 07:21:23;;;;;;;4.00;1.70;;;;;;;11.17;96.43;99300.09;5055515;28;20267;-80
2023/12/25 07:23:49;;;;;;;0.83;0.70;;;;;;;11.11;95.34;99319.47;5054729;28;20226;-79
2023/12/25 07:26:17;;;;;;;3.73;0.80;;;;;;;11.24;95.24;99321.63;5055957;28;20209;-79
2023/12/25 07:28:43;;;;;;;1.50;0.90;;;;;;;11.26;95.08;99335.47;5055569;28;20205;-80
2023/12/25 07:31:10;;;;;;;2.97;0.87;;;;;;;11.17;94.89;99338.44;5054865;28;20201;-79
2023/12/25 07:33:36;;;;;;;2.23;1.10;;;;;;;11.13;95.73;99335.94;5055181;28;20209;-80
2023/12/25 07:36:05;;;;;;;2.10;0.93;;;;;;;11.25;94.53;99363.31;5054661;28;20578;-79
2023/12/25 07:38:31;;;;;;;2.10;0.70;;;;;;;11.11;95.07;99366.47;5046768;28;20349;-79
2023/12/25 07:40:58;;;;;;;2.63;0.87;;;;;;;10.96;95.61;99368.81;5054138;28;20346;-78
2023/12/25 07:43:26;;;;;;;2.93;0.87;;;;;;;11.01;95.20;99359.06;5054504;28;20209;-79
2023/12/25 07:45:53;;;;;;;1.73;1.13;;;;;;;10.93;94.84;99361.97;5054256;28;20205;-79
2023/12/25 07:48:20;;;;;;;1.43;0.90;;;;;;;10.99;92.78;99395.66;5054893;28;20211;-79
2023/12/25 07:50:46;;;;;;;1.03;0.90;;;;;;;11.10;93.01;99398.75;5054872;28;20802;-80
2023/12/25 07:53:14;;;;;;;1.37;0.57;;;;;;;11.03;92.67;99407.69;5053571;28;20745;-78
2023/12/25 07:55:40;;;;;;;2.07;0.60;;;;;;;11.12;92.51;99422.19;5053985;28;20823;-79
2023/12/25 07:58:07;;;;;;;2.20;0.67;;;;;;;11.23;92.51;99427.00;5054371;28;20556;-79
2023/12/25 08:00:33;;;;;;;1.60;0.57;;;;;;;11.17;92.18;99430.69;5054117;28;20202;-79
2023/12/25 08:02:59;;;;;;;1.07;0.50;;;;;;;11.22;92.42;99454.00;5053784;28;20588;-80
2023/12/25 08:05:26;;;;;;;2.23;0.80;;;;;;;11.34;94.94;99435.28;5054156;28;20756;-79
2023/12/25 08:07:52;;;;;;;1.43;0.80;;;;;;;10.95;97.25;99399.31;5053626;28;20205;-79
2023/12/25 08:10:20;;;;;;;2.07;0.73;;;;;;;11.10;99.34;99361.34;5053426;28;20201;-79
2023/12/25 08:12:46;;;;;;;3.33;0.70;;;;;;;10.98;100.00;99330.44;5053848;28;20736;-80
2023/12/25 08:15:13;;;;;;;1.73;0.83;;;;;;;11.12;99.83;99312.50;5053194;28;20279;-79
2023/12/25 08:17:41;;;;;;;1.77;0.80;;;;;;;11.09;99.54;99310.84;5054196;28;20213;-79
2023/12/25 08:20:08;;;;;;;2.47;1.20;;;;;;;11.08;99.54;99317.00;5053760;28;20209;-79
2023/12/25 08:22:36;;;;;;;2.90;0.80;;;;;;;11.13;99.00;99328.09;5053921;28;20213;-79
2023/12/25 08:25:03;;;;;;;1.47;0.70;;;;;;;10.97;99.33;99331.38;5053437;28;20229;-79
2023/12/25 08:27:31;;;;;;;1.03;0.90;;;;;;;11.24;99.91;99312.00;5054682;28;20202;-80
2023/12/25 08:29:57;;;;;;;1.43;1.00;;;;;;;11.18;100.00;99324.44;5053481;28;20319;-79
2023/12/25 08:32:23;;;;;;;2.73;1.20;;;;;;;11.19;100.00;99331.38;5054795;28;20672;-79
2023/12/25 08:34:50;;;;;;;3.67;0.90;;;;;;;10.85;100.00;99294.38;5054264;28;20244;-80
2023/12/25 08:37:16;;;;;;;3.17;1.10;;;;;;;10.80;100.00;99231.06;5053806;28;20209;-79
2023/12/25 08:39:43;;;;;;;1.87;0.90;;;;;;;10.68;100.00;99223.69;5053380;28;20203;-79
2023/12/25 08:42:09;;;;;;;3.07;2.80;;;;;;;10.61;100.00;99207.44;5053780;28;20214;-79
2023/12/25 08:44:37;;;;;;;4.90;1.23;;;;;;;10.66;100.00;99200.28;5052790;28;20614;-78
2023/12/25 08:47:04;;;;;;;4.50;1.63;;;;;;;10.63;100.00;99176.06;5053953;28;20396;-79
2023/12/25 08:49:33;;;;;;;1.47;0.90;;;;;;;10.75;100.00;99191.22;5053695;28;20208;-79
2023/12/25 08:51:59;;;;;;;2.43;1.07;;;;;;;10.83;100.00;99225.72;5054105;28;20592;-78
2023/12/25 08:54:26;;;;;;;1.80;0.83;;;;;;;10.96;100.00;99220.88;5053110;28;20275;-79
2023/12/25 08:56:52;;;;;;;4.67;1.20;;;;;;;10.90;100.00;99239.34;5053544;28;20619;-79
2023/12/25 08:59:18;;;;;;;2.40;1.47;;;;;;;11.08;100.00;99258.66;5053223;28;20563;-79
2023/12/25 09:01:46;;;;;;;2.30;1.17;;;;;;;11.14;100.00;99279.34;5054154;28;20205;-79
2023/12/25 09:04:12;;;;;;;14.53;13.03;;;;;;;10.73;100.00;99259.16;5053307;28;20236;-78
2023/12/25 09:06:41;;;;;;;17.73;11.20;;;;;;;10.83;100.00;99230.94;5053882;28;20672;-78
2023/12/25 09:09:08;;;;;;;6.57;5.17;;;;;;;10.75;100.00;99229.53;5053619;28;20206;-78
2023/12/25 09:11:35;;;;;;;6.03;3.60;;;;;;;11.01;100.00;99238.94;5053149;28;20255;-79
2023/12/25 09:14:01;;;;;;;3.60;3.13;;;;;;;11.07;100.00;99256.97;5053532;28;20311;-79
2023/12/25 09:16:28;;;;;;;5.20;4.60;;;;;;;10.91;100.00;99309.78;5052744;28;20213;-79
2023/12/25 09:18:56;;;;;;;2.83;2.03;;;;;;;11.05;100.00;99313.63;5053724;28;20224;-81
2023/12/25 09:21:22;;;;;;;1.80;1.07;;;;;;;11.24;98.37;99360.81;5053792;28;20263;-79
2023/12/25 09:23:49;;;;;;;5.00;1.50;;;;;;;11.19;97.29;99396.69;5055685;28;20233;-78
2023/12/25 09:26:20;;;;;;;2.43;1.30;;;;;;;11.26;95.45;99432.13;5056891;28;20272;-78
2023/12/25 09:28:46;;;;;;;4.33;2.20;;;;;;;11.32;95.26;99435.34;5057330;28;20205;-79
2023/12/25 09:31:13;;;;;;;3.80;1.77;;;;;;;11.40;96.07;99431.59;5057810;28;20210;-78
2023/12/25 09:33:40;;;;;;;6.07;4.87;;;;;;;11.43;96.10;99445.38;5057076;28;20631;-79
2023/12/25 09:36:08;;;;;;;4.67;2.40;;;;;;;11.57;93.83;99475.34;5057437;28;20209;-79
2023/12/25 09:38:34;;;;;;;3.50;2.30;;;;;;;11.39;92.93;99522.16;5056983;28;20205;-78
2023/12/25 09:41:01;;;;;;;4.30;2.47;;;;;;;11.38;92.95;99530.06;5057282;28;20216;-79
2023/12/25 09:43:28;;;;;;;5.57;2.03;;;;;;;11.27;92.27;99546.13;5055719;28;20215;-78
2023/12/25 09:45:56;;;;;;;3.63;1.60;;;;;;;11.35;91.98;99558.94;5051426;28;20229;-79
2023/12/25 09:48:23;;;;;;;2.20;1.10;;;;;;;11.14;92.57;99569.25;5056987;28;20258;-78
2023/12/25 09:50:49;;;;;;;4.43;1.50;;;;;;;11.45;91.57;99562.91;4353316;28;10000736;-77
2023/12/25 09:53:17;;;;;;;2.80;1.30;;;;;;;11.49;91.19;99580.19;5053374;28;20761;-78
2023/12/25 09:55:45;;;;;;;2.93;1.23;;;;;;;11.28;90.10;99605.34;5052692;28;20225;-78
2023/12/25 09:58:11;;;;;;;2.57;1.40;;;;;;;11.28;91.03;99607.94;5053791;28;20254;-79
2023/12/25 10:00:38;;;;;;;3.07;1.63;;;;;;;11.49;90.04;99603.69;5052665;28;20213;-78
2023/12/25 10:03:05;;;;;;;13.00;11.93;;;;;;;11.62;90.52;99614.56;5053504;28;20206;-78
2023/12/25 10:05:31;;;;;;;14.70;13.50;;;;;;;11.35;89.58;99637.31;5052898;28;20237;-77
2023/12/25 10:07:58;;;;;;;5.10;4.57;;;;;;;11.47;89.35;99640.34;5052983;28;20205;-79
2023/12/25 10:10:28;;;;;;;3.83;2.03;;;;;;;11.43;89.67;99624.81;5052893;28;20206;-78
2023/12/25 10:12:54;;;;;;;4.77;4.13;;;;;;;11.52;89.19;99651.50;5053184;28;20202;-78
2023/12/25 10:15:21;;;;;;;2.30;1.97;;;;;;;11.46;89.61;99656.94;5052228;28;20221;-79
2023/12/25 10:17:48;;;;;;;5.83;1.83;;;;;;;11.69;88.22;99686.63;5053549;28;20202;-78
2023/12/25 10:20:19;;;;;;;3.60;1.30;;;;;;;11.79;88.46;99674.91;5052647;28;20295;-79
2023/12/25 10:22:45;;;;;;;2.23;1.63;;;;;;;11.64;89.66;99647.59;5053394;28;20254;-78
2023/12/25 10:25:13;;;;;;;3.87;1.40;;;;;;;11.61;90.03;99644.22;5052058;28;20217;-78
2023/12/25 10:27:43;;;;;;;1.90;1.23;;;;;;;11.57;91.78;99616.50;5053202;28;20201;-78
2023/12/25 10:30:16;;;;;;;3.93;1.30;;;;;;;11.46;92.42;99611.66;5052768;28;20293;-78
2023/12/25 10:32:43;;;;;;;4.67;1.13;;;;;;;11.74;92.93;99574.91;5044775;28;20213;-78
2023/12/25 10:35:10;;;;;;;2.63;1.50;;;;;;;11.52;93.08;99556.56;5051787;28;20279;-78
2023/12/25 10:37:38;;;;;;;4.00;1.40;;;;;;;11.70;93.38;99539.34;5053254;28;20271;-78
2023/12/25 10:40:18;;;;;;;2.60;1.33;;;;;;;11.56;93.04;99539.84;5053044;28;20667;-78
2023/12/25 10:42:48;;;;;;;2.97;1.50;;;;;;;11.41;93.15;99528.19;5052873;28;20197;-78
2023/12/25 10:45:18;;;;;;;8.23;1.50;;;;;;;11.56;92.33;99528.56;5052871;28;20225;-78
2023/12/25 10:47:45;;;;;;;2.50;1.23;;;;;;;11.72;92.21;99530.50;5044522;28;20260;-78
2023/12/25 10:50:13;;;;;;;3.10;1.40;;;;;;;11.39;91.27;99557.91;5057779;28;20231;-78
2023/12/25 10:52:40;;;;;;;3.40;2.13;;;;;;;11.37;91.50;99575.41;5053197;28;20213;-77
2023/12/25 10:55:07;;;;;;;2.33;1.30;;;;;;;11.50;91.66;99564.44;5051929;28;20267;-78
2023/12/25 10:57:35;;;;;;;4.23;1.40;;;;;;;11.46;91.25;99567.25;5051988;28;20925;-78
2023/12/25 11:00:04;;;;;;;3.40;1.30;;;;;;;11.68;91.54;99562.91;5051658;28;20253;-78
2023/12/25 11:02:37;;;;;;;7.53;6.83;;;;;;;11.51;90.28;99584.44;5052732;28;20782;-79
2023/12/25 11:05:04;;;;;;;4.33;3.60;;;;;;;11.51;90.20;99597.50;5050873;28;20237;-76
2023/12/25 11:07:31;;;;;;;3.57;1.60;;;;;;;11.42;90.76;99597.00;5050084;28;20778;-76
2023/12/25 11:09:59;;;;;;;3.00;1.40;;;;;;;11.44;91.22;99572.50;5049112;28;20727;-76
2023/12/25 11:12:26;;;;;;;5.50;2.97;;;;;;;11.73;89.97;99578.41;5049968;28;20205;-76
2023/12/25 11:14:52;;;;;;;3.40;2.10;;;;;;;11.75;88.16;99615.81;5049343;28;20252;-76
2023/12/25 11:17:20;;;;;;;2.63;1.80;;;;;;;11.72;86.50;99644.69;5049779;28;20278;-76
2023/12/25 11:19:47;;;;;;;13.33;1.80;;;;;;;11.65;89.06;99643.19;5041019;28;20668;-76
2023/12/25 11:22:26;;;;;;;6.90;1.90;;;;;;;11.58;89.25;99650.44;5049648;28;20590;-77
2023/12/25 11:24:53;;;;;;;5.57;3.53;;;;;;;11.42;89.14;99662.34;5048516;28;20240;-77
2023/12/25 11:27:20;;;;;;;2.20;1.50;;;;;;;11.46;88.57;99656.09;5049701;28;20777;-76
2023/12/25 11:29:47;;;;;;;3.27;1.80;;;;;;;11.60;88.46;99660.84;5049912;28;20209;-78